sensor_id;sensor_type;location;lat;lon;timestamp;temperature;humidity
66610;DHT22;53468;48.276;14.416;2023-04-03T00:03:45;5.10;99.90
66610;DHT22;53468;48.276;14.416;2023-04-03T00:08:49;5.10;99.90
66610;DHT22;53468;48.276;14.416;2023-04-03T00:13:52;5.10;99.90
66610;DHT22;53468;48.276;14.416;2023-04-03T00:19:00;5.20;99.90
66610;DHT22;53468;48.276;14.416;2023-04-03T00:24:09;5.20;99.90
66610;DHT22;53468;48.276;14.416;2023-04-03T00:29:12;5.10;99.90
66610;DHT22;53468;48.276;14.416;2023-04-03T00:34:17;5.10;99.90
66610;DHT22;53468;48.276;14.416;2023-04-03T00:39:20;5.00;99.90
66610;DHT22;53468;48.276;14.416;2023-04-03T00:50:10;5.00;99.90
66610;DHT22;53468;48.276;14.416;2023-04-03T00:55:14;5.00;99.90
66610;DHT22;53468;48.276;14.416;2023-04-03T01:00:21;5.00;99.90
66610;DHT22;53468;48.276;14.416;2023-04-03T01:05:27;5.00;99.90
66610;DHT22;53468;48.276;14.416;2023-04-03T01:10:30;4.90;99.90
66610;DHT22;53468;48.276;14.416;2023-04-03T01:15:34;5.00;99.90
66610;DHT22;53468;48.276;14.416;2023-04-03T01:26:16;4.80;99.90
66610;DHT22;53468;48.276;14.416;2023-04-03T01:31:46;4.80;99.90
66610;DHT22;53468;48.276;14.416;2023-04-03T01:36:50;4.80;99.90
66610;DHT22;53468;48.276;14.416;2023-04-03T01:41:54;4.70;99.90
66610;DHT22;53468;48.276;14.416;2023-04-03T01:46:59;4.80;99.90
66610;DHT22;53468;48.276;14.416;2023-04-03T01:52:03;4.70;99.90
66610;DHT22;53468;48.276;14.416;2023-04-03T01:57:06;4.70;99.90
66610;DHT22;53468;48.276;14.416;2023-04-03T02:02:12;4.80;99.90
66610;DHT22;53468;48.276;14.416;2023-04-03T02:07:15;4.80;99.90
66610;DHT22;53468;48.276;14.416;2023-04-03T02:12:19;4.80;99.90
66610;DHT22;53468;48.276;14.416;2023-04-03T02:17:24;4.80;99.90
66610;DHT22;53468;48.276;14.416;2023-04-03T02:22:27;4.80;99.90
66610;DHT22;53468;48.276;14.416;2023-04-03T02:27:31;4.70;99.90
66610;DHT22;53468;48.276;14.416;2023-04-03T02:32:36;4.70;99.90
66610;DHT22;53468;48.276;14.416;2023-04-03T02:37:39;4.70;99.90
66610;DHT22;53468;48.276;14.416;2023-04-03T02:42:42;4.70;99.90
66610;DHT22;53468;48.276;14.416;2023-04-03T02:47:47;4.70;99.90
66610;DHT22;53468;48.276;14.416;2023-04-03T02:52:51;4.60;99.90
66610;DHT22;53468;48.276;14.416;2023-04-03T02:57:54;4.60;99.90
66610;DHT22;53468;48.276;14.416;2023-04-03T03:02:59;4.60;99.90
66610;DHT22;53468;48.276;14.416;2023-04-03T03:08:03;4.50;99.90
66610;DHT22;53468;48.276;14.416;2023-04-03T03:13:06;4.50;99.90
66610;DHT22;53468;48.276;14.416;2023-04-03T03:18:11;4.50;99.90
66610;DHT22;53468;48.276;14.416;2023-04-03T03:23:15;4.60;99.90
66610;DHT22;53468;48.276;14.416;2023-04-03T03:28:19;4.50;99.90
66610;DHT22;53468;48.276;14.416;2023-04-03T03:33:25;4.60;99.90
66610;DHT22;53468;48.276;14.416;2023-04-03T03:38:28;4.60;99.90
66610;DHT22;53468;48.276;14.416;2023-04-03T03:43:33;4.60;99.90
66610;DHT22;53468;48.276;14.416;2023-04-03T03:48:39;4.50;99.90
66610;DHT22;53468;48.276;14.416;2023-04-03T03:53:43;4.50;99.90
66610;DHT22;53468;48.276;14.416;2023-04-03T03:58:46;4.50;99.90
66610;DHT22;53468;48.276;14.416;2023-04-03T04:03:52;4.50;99.90
66610;DHT22;53468;48.276;14.416;2023-04-03T04:08:56;4.50;99.90
66610;DHT22;53468;48.276;14.416;2023-04-03T04:14:08;4.40;99.90
66610;DHT22;53468;48.276;14.416;2023-04-03T04:19:15;4.40;99.90
66610;DHT22;53468;48.276;14.416;2023-04-03T04:24:18;4.40;99.90
66610;DHT22;53468;48.276;14.416;2023-04-03T04:29:24;4.40;99.90
66610;DHT22;53468;48.276;14.416;2023-04-03T04:34:29;4.30;99.90
66610;DHT22;53468;48.276;14.416;2023-04-03T04:39:36;4.40;99.90
66610;DHT22;53468;48.276;14.416;2023-04-03T04:44:39;4.40;99.90
66610;DHT22;53468;48.276;14.416;2023-04-03T04:49:44;4.30;99.90
66610;DHT22;53468;48.276;14.416;2023-04-03T04:54:48;4.40;99.90
66610;DHT22;53468;48.276;14.416;2023-04-03T04:59:52;4.40;99.90
66610;DHT22;53468;48.276;14.416;2023-04-03T05:04:59;4.40;99.90
66610;DHT22;53468;48.276;14.416;2023-04-03T05:10:04;4.40;99.90
66610;DHT22;53468;48.276;14.416;2023-04-03T05:15:09;4.40;99.90
66610;DHT22;53468;48.276;14.416;2023-04-03T05:20:14;4.50;99.90
66610;DHT22;53468;48.276;14.416;2023-04-03T05:25:18;4.50;99.90
66610;DHT22;53468;48.276;14.416;2023-04-03T05:30:21;4.50;99.90
66610;DHT22;53468;48.276;14.416;2023-04-03T05:35:26;4.50;99.90
66610;DHT22;53468;48.276;14.416;2023-04-03T05:40:29;4.60;99.90
66610;DHT22;53468;48.276;14.416;2023-04-03T05:45:32;4.70;99.90
66610;DHT22;53468;48.276;14.416;2023-04-03T05:50:37;4.70;99.90
66610;DHT22;53468;48.276;14.416;2023-04-03T05:55:42;4.70;99.90
66610;DHT22;53468;48.276;14.416;2023-04-03T06:00:45;4.80;99.90
66610;DHT22;53468;48.276;14.416;2023-04-03T06:05:50;4.80;99.90
66610;DHT22;53468;48.276;14.416;2023-04-03T06:10:53;4.90;99.90
66610;DHT22;53468;48.276;14.416;2023-04-03T06:15:57;4.90;99.90
66610;DHT22;53468;48.276;14.416;2023-04-03T06:21:01;4.80;99.90
66610;DHT22;53468;48.276;14.416;2023-04-03T06:26:05;4.90;99.90
66610;DHT22;53468;48.276;14.416;2023-04-03T06:31:08;4.90;99.90
66610;DHT22;53468;48.276;14.416;2023-04-03T06:36:15;5.00;99.90
66610;DHT22;53468;48.276;14.416;2023-04-03T06:41:22;4.90;99.90
66610;DHT22;53468;48.276;14.416;2023-04-03T06:46:27;4.90;99.90
66610;DHT22;53468;48.276;14.416;2023-04-03T06:51:32;4.90;99.90
66610;DHT22;53468;48.276;14.416;2023-04-03T06:56:35;5.00;99.90
66610;DHT22;53468;48.276;14.416;2023-04-03T07:01:39;5.00;99.90
66610;DHT22;53468;48.276;14.416;2023-04-03T07:06:45;5.00;99.90
66610;DHT22;53468;48.276;14.416;2023-04-03T07:11:48;5.10;99.90
66610;DHT22;53468;48.276;14.416;2023-04-03T07:16:51;5.10;99.90
66610;DHT22;53468;48.276;14.416;2023-04-03T07:21:56;5.20;99.90
66610;DHT22;53468;48.276;14.416;2023-04-03T07:26:59;5.30;99.90
66610;DHT22;53468;48.276;14.416;2023-04-03T07:38:02;5.40;99.90
66610;DHT22;53468;48.276;14.416;2023-04-03T07:43:05;5.30;99.90
66610;DHT22;53468;48.276;14.416;2023-04-03T07:48:09;5.40;99.90
66610;DHT22;53468;48.276;14.416;2023-04-03T07:53:15;5.30;99.90
66610;DHT22;53468;48.276;14.416;2023-04-03T07:58:19;5.10;99.90
66610;DHT22;53468;48.276;14.416;2023-04-03T08:03:22;4.90;99.90
66610;DHT22;53468;48.276;14.416;2023-04-03T08:08:29;4.90;99.90
66610;DHT22;53468;48.276;14.416;2023-04-03T08:24:34;5.30;99.90
66610;DHT22;53468;48.276;14.416;2023-04-03T08:29:38;5.70;99.90
66610;DHT22;53468;48.276;14.416;2023-04-03T08:34:42;5.80;99.90
66610;DHT22;53468;48.276;14.416;2023-04-03T08:39:49;5.70;99.90
66610;DHT22;53468;48.276;14.416;2023-04-03T08:45:12;5.90;99.90
66610;DHT22;53468;48.276;14.416;2023-04-03T08:50:19;6.20;99.90
66610;DHT22;53468;48.276;14.416;2023-04-03T08:55:30;6.10;99.90
66610;DHT22;53468;48.276;14.416;2023-04-03T09:00:44;6.50;99.90
66610;DHT22;53468;48.276;14.416;2023-04-03T09:05:55;6.60;99.90
66610;DHT22;53468;48.276;14.416;2023-04-03T09:11:18;6.90;99.90
66610;DHT22;53468;48.276;14.416;2023-04-03T09:16:39;7.20;99.90
66610;DHT22;53468;48.276;14.416;2023-04-03T09:22:12;7.10;99.90
66610;DHT22;53468;48.276;14.416;2023-04-03T09:27:58;7.30;99.90
66610;DHT22;53468;48.276;14.416;2023-04-03T09:33:45;7.10;99.90
66610;DHT22;53468;48.276;14.416;2023-04-03T09:39:03;6.90;99.90
66610;DHT22;53468;48.276;14.416;2023-04-03T09:44:33;6.90;99.90
66610;DHT22;53468;48.276;14.416;2023-04-03T09:50:10;7.30;99.90
66610;DHT22;53468;48.276;14.416;2023-04-03T09:55:32;7.50;98.90
66610;DHT22;53468;48.276;14.416;2023-04-03T10:00:56;7.60;98.10
66610;DHT22;53468;48.276;14.416;2023-04-03T10:06:04;7.80;99.60
66610;DHT22;53468;48.276;14.416;2023-04-03T10:11:29;7.60;98.20
66610;DHT22;53468;48.276;14.416;2023-04-03T10:17:02;7.70;99.50
66610;DHT22;53468;48.276;14.416;2023-04-03T10:22:18;8.20;99.90
66610;DHT22;53468;48.276;14.416;2023-04-03T10:27:37;7.60;98.30
66610;DHT22;53468;48.276;14.416;2023-04-03T10:32:54;7.10;97.90
66610;DHT22;53468;48.276;14.416;2023-04-03T10:38:12;7.50;99.90
66610;DHT22;53468;48.276;14.416;2023-04-03T10:43:26;7.60;98.90
66610;DHT22;53468;48.276;14.416;2023-04-03T10:48:52;7.80;99.90
66610;DHT22;53468;48.276;14.416;2023-04-03T10:54:41;7.50;99.60
66610;DHT22;53468;48.276;14.416;2023-04-03T10:59:56;7.10;97.80
66610;DHT22;53468;48.276;14.416;2023-04-03T11:05:18;7.30;99.90
66610;DHT22;53468;48.276;14.416;2023-04-03T11:10:39;7.30;99.90
66610;DHT22;53468;48.276;14.416;2023-04-03T11:15:57;7.20;99.90
66610;DHT22;53468;48.276;14.416;2023-04-03T11:21:21;7.30;99.90
66610;DHT22;53468;48.276;14.416;2023-04-03T11:26:58;7.10;99.40
66610;DHT22;53468;48.276;14.416;2023-04-03T11:32:10;7.30;98.20
66610;DHT22;53468;48.276;14.416;2023-04-03T11:37:33;7.50;98.90
66610;DHT22;53468;48.276;14.416;2023-04-03T11:42:46;7.40;99.30
66610;DHT22;53468;48.276;14.416;2023-04-03T11:48:53;7.10;93.90
66610;DHT22;53468;48.276;14.416;2023-04-03T11:54:51;7.00;95.10
66610;DHT22;53468;48.276;14.416;2023-04-03T11:59:57;6.80;95.90
66610;DHT22;53468;48.276;14.416;2023-04-03T12:05:25;6.90;97.50
66610;DHT22;53468;48.276;14.416;2023-04-03T12:10:30;6.80;99.20
66610;DHT22;53468;48.276;14.416;2023-04-03T12:20:57;6.70;97.90
66610;DHT22;53468;48.276;14.416;2023-04-03T12:26:06;6.60;99.10
66610;DHT22;53468;48.276;14.416;2023-04-03T12:31:25;6.80;98.80
66610;DHT22;53468;48.276;14.416;2023-04-03T12:36:41;6.90;96.70
66610;DHT22;53468;48.276;14.416;2023-04-03T12:41:58;6.80;94.50
66610;DHT22;53468;48.276;14.416;2023-04-03T12:47:42;6.80;95.80
66610;DHT22;53468;48.276;14.416;2023-04-03T12:52:50;6.70;96.30
66610;DHT22;53468;48.276;14.416;2023-04-03T12:58:16;6.80;98.00
66610;DHT22;53468;48.276;14.416;2023-04-03T13:03:25;6.60;97.20
66610;DHT22;53468;48.276;14.416;2023-04-03T13:08:30;6.50;93.30
66610;DHT22;53468;48.276;14.416;2023-04-03T13:14:13;6.70;95.70
66610;DHT22;53468;48.276;14.416;2023-04-03T13:19:25;7.10;95.20
66610;DHT22;53468;48.276;14.416;2023-04-03T13:24:40;7.30;94.20
66610;DHT22;53468;48.276;14.416;2023-04-03T13:29:51;7.30;93.30
66610;DHT22;53468;48.276;14.416;2023-04-03T13:35:01;7.30;94.80
66610;DHT22;53468;48.276;14.416;2023-04-03T13:40:16;7.40;93.50
66610;DHT22;53468;48.276;14.416;2023-04-03T13:45:59;7.40;95.70
66610;DHT22;53468;48.276;14.416;2023-04-03T13:51:17;7.20;93.20
66610;DHT22;53468;48.276;14.416;2023-04-03T13:56:30;6.90;92.50
66610;DHT22;53468;48.276;14.416;2023-04-03T14:01:42;6.90;93.60
66610;DHT22;53468;48.276;14.416;2023-04-03T14:06:53;6.80;93.90
66610;DHT22;53468;48.276;14.416;2023-04-03T14:12:02;6.80;91.60
66610;DHT22;53468;48.276;14.416;2023-04-03T14:17:14;7.00;95.20
66610;DHT22;53468;48.276;14.416;2023-04-03T14:22:19;6.90;91.40
66610;DHT22;53468;48.276;14.416;2023-04-03T14:27:27;6.70;93.90
66610;DHT22;53468;48.276;14.416;2023-04-03T14:32:40;6.80;94.20
66610;DHT22;53468;48.276;14.416;2023-04-03T14:37:55;6.90;94.00
66610;DHT22;53468;48.276;14.416;2023-04-03T14:42:59;6.70;93.60
66610;DHT22;53468;48.276;14.416;2023-04-03T14:48:10;6.50;95.40
66610;DHT22;53468;48.276;14.416;2023-04-03T14:53:31;6.30;93.80
66610;DHT22;53468;48.276;14.416;2023-04-03T14:58:36;6.10;93.00
66610;DHT22;53468;48.276;14.416;2023-04-03T15:03:42;6.20;95.80
66610;DHT22;53468;48.276;14.416;2023-04-03T15:08:46;6.10;96.30
66610;DHT22;53468;48.276;14.416;2023-04-03T15:13:48;6.00;97.20
66610;DHT22;53468;48.276;14.416;2023-04-03T15:18:53;6.00;98.20
66610;DHT22;53468;48.276;14.416;2023-04-03T15:23:57;5.90;93.70
66610;DHT22;53468;48.276;14.416;2023-04-03T15:29:03;5.80;94.70
66610;DHT22;53468;48.276;14.416;2023-04-03T15:34:09;5.80;97.00
66610;DHT22;53468;48.276;14.416;2023-04-03T15:39:40;5.60;98.50
66610;DHT22;53468;48.276;14.416;2023-04-03T15:44:47;5.60;97.30
66610;DHT22;53468;48.276;14.416;2023-04-03T15:49:55;5.60;97.70
66610;DHT22;53468;48.276;14.416;2023-04-03T15:54:59;5.40;95.90
66610;DHT22;53468;48.276;14.416;2023-04-03T16:05:46;5.30;99.90
66610;DHT22;53468;48.276;14.416;2023-04-03T16:10:57;5.10;99.90
66610;DHT22;53468;48.276;14.416;2023-04-03T16:16:07;5.30;99.90
66610;DHT22;53468;48.276;14.416;2023-04-03T16:21:27;5.50;99.90
66610;DHT22;53468;48.276;14.416;2023-04-03T16:26:31;5.40;99.90
66610;DHT22;53468;48.276;14.416;2023-04-03T16:31:53;5.10;99.90
66610;DHT22;53468;48.276;14.416;2023-04-03T16:36:59;5.20;99.90
66610;DHT22;53468;48.276;14.416;2023-04-03T16:42:23;5.00;99.90
66610;DHT22;53468;48.276;14.416;2023-04-03T16:47:27;5.00;99.90
66610;DHT22;53468;48.276;14.416;2023-04-03T16:52:33;4.90;99.90
66610;DHT22;53468;48.276;14.416;2023-04-03T16:57:38;4.80;99.90
66610;DHT22;53468;48.276;14.416;2023-04-03T17:09:03;4.70;99.90
66610;DHT22;53468;48.276;14.416;2023-04-03T17:14:08;4.40;99.90
66610;DHT22;53468;48.276;14.416;2023-04-03T17:19:13;4.20;99.90
66610;DHT22;53468;48.276;14.416;2023-04-03T17:24:20;4.10;99.90
66610;DHT22;53468;48.276;14.416;2023-04-03T17:29:24;4.00;99.90
66610;DHT22;53468;48.276;14.416;2023-04-03T17:34:28;3.80;99.90
66610;DHT22;53468;48.276;14.416;2023-04-03T17:39:41;3.80;99.90
66610;DHT22;53468;48.276;14.416;2023-04-03T17:44:49;3.70;99.90
66610;DHT22;53468;48.276;14.416;2023-04-03T17:50:27;3.60;99.90
66610;DHT22;53468;48.276;14.416;2023-04-03T17:55:39;3.50;99.90
66610;DHT22;53468;48.276;14.416;2023-04-03T18:01:09;3.40;99.90
66610;DHT22;53468;48.276;14.416;2023-04-03T18:06:18;3.30;99.90
66610;DHT22;53468;48.276;14.416;2023-04-03T18:11:27;3.20;99.90
66610;DHT22;53468;48.276;14.416;2023-04-03T18:16:34;3.20;99.90
66610;DHT22;53468;48.276;14.416;2023-04-03T18:21:38;3.20;99.90
66610;DHT22;53468;48.276;14.416;2023-04-03T18:26:46;3.20;99.90
66610;DHT22;53468;48.276;14.416;2023-04-03T18:31:57;3.10;99.90
66610;DHT22;53468;48.276;14.416;2023-04-03T18:37:06;3.10;99.90
66610;DHT22;53468;48.276;14.416;2023-04-03T18:42:14;2.90;99.90
66610;DHT22;53468;48.276;14.416;2023-04-03T18:47:21;3.00;99.90
66610;DHT22;53468;48.276;14.416;2023-04-03T18:52:28;3.00;99.90
66610;DHT22;53468;48.276;14.416;2023-04-03T18:57:36;3.10;99.90
66610;DHT22;53468;48.276;14.416;2023-04-03T19:02:48;3.10;99.90
66610;DHT22;53468;48.276;14.416;2023-04-03T19:07:55;3.20;99.90
66610;DHT22;53468;48.276;14.416;2023-04-03T19:13:01;3.30;99.90
66610;DHT22;53468;48.276;14.416;2023-04-03T19:18:06;3.30;99.90
66610;DHT22;53468;48.276;14.416;2023-04-03T19:23:10;3.30;99.90
66610;DHT22;53468;48.276;14.416;2023-04-03T19:28:17;3.30;99.90
66610;DHT22;53468;48.276;14.416;2023-04-03T19:33:21;3.30;99.90
66610;DHT22;53468;48.276;14.416;2023-04-03T19:38:35;3.30;99.90
66610;DHT22;53468;48.276;14.416;2023-04-03T19:43:40;3.40;99.90
66610;DHT22;53468;48.276;14.416;2023-04-03T19:48:44;3.50;99.90
66610;DHT22;53468;48.276;14.416;2023-04-03T19:53:48;3.40;99.90
66610;DHT22;53468;48.276;14.416;2023-04-03T19:58:54;3.50;99.90
66610;DHT22;53468;48.276;14.416;2023-04-03T20:04:00;3.40;99.90
66610;DHT22;53468;48.276;14.416;2023-04-03T20:09:03;3.30;99.90
66610;DHT22;53468;48.276;14.416;2023-04-03T20:14:10;3.30;99.90
66610;DHT22;53468;48.276;14.416;2023-04-03T20:19:14;3.30;99.90
66610;DHT22;53468;48.276;14.416;2023-04-03T20:24:36;3.30;99.90
66610;DHT22;53468;48.276;14.416;2023-04-03T20:29:44;3.20;99.90
66610;DHT22;53468;48.276;14.416;2023-04-03T20:34:49;3.20;99.90
66610;DHT22;53468;48.276;14.416;2023-04-03T20:39:54;3.20;99.90
66610;DHT22;53468;48.276;14.416;2023-04-03T20:45:04;3.20;99.90
66610;DHT22;53468;48.276;14.416;2023-04-03T20:50:09;3.20;99.90
66610;DHT22;53468;48.276;14.416;2023-04-03T20:55:14;3.20;99.90
66610;DHT22;53468;48.276;14.416;2023-04-03T21:00:21;3.10;99.90
66610;DHT22;53468;48.276;14.416;2023-04-03T21:05:46;3.20;99.90
66610;DHT22;53468;48.276;14.416;2023-04-03T21:21:56;3.20;99.90
66610;DHT22;53468;48.276;14.416;2023-04-03T21:27:06;3.20;99.90
66610;DHT22;53468;48.276;14.416;2023-04-03T21:32:13;3.10;99.90
66610;DHT22;53468;48.276;14.416;2023-04-03T21:37:40;3.10;99.90
66610;DHT22;53468;48.276;14.416;2023-04-03T21:42:58;3.00;99.90
66610;DHT22;53468;48.276;14.416;2023-04-03T21:48:04;3.10;99.90
66610;DHT22;53468;48.276;14.416;2023-04-03T21:53:29;3.00;99.90
66610;DHT22;53468;48.276;14.416;2023-04-03T21:58:46;3.10;99.90
66610;DHT22;53468;48.276;14.416;2023-04-03T22:03:58;3.10;99.90
66610;DHT22;53468;48.276;14.416;2023-04-03T22:09:05;3.10;99.90
66610;DHT22;53468;48.276;14.416;2023-04-03T22:14:13;3.10;99.90
66610;DHT22;53468;48.276;14.416;2023-04-03T22:19:18;3.00;99.90
66610;DHT22;53468;48.276;14.416;2023-04-03T22:24:41;3.10;99.90
66610;DHT22;53468;48.276;14.416;2023-04-03T22:29:48;3.10;99.90
66610;DHT22;53468;48.276;14.416;2023-04-03T22:35:14;3.10;99.90
66610;DHT22;53468;48.276;14.416;2023-04-03T22:40:21;3.00;99.90
66610;DHT22;53468;48.276;14.416;2023-04-03T22:45:28;3.00;99.90
66610;DHT22;53468;48.276;14.416;2023-04-03T22:50:36;3.00;99.90
66610;DHT22;53468;48.276;14.416;2023-04-03T22:55:44;3.00;99.90
66610;DHT22;53468;48.276;14.416;2023-04-03T23:01:04;3.00;99.90
66610;DHT22;53468;48.276;14.416;2023-04-03T23:06:09;3.00;99.90
66610;DHT22;53468;48.276;14.416;2023-04-03T23:11:31;3.00;99.90
66610;DHT22;53468;48.276;14.416;2023-04-03T23:16:38;2.90;99.90
66610;DHT22;53468;48.276;14.416;2023-04-03T23:21:44;3.00;99.90
66610;DHT22;53468;48.276;14.416;2023-04-03T23:26:55;2.90;99.90
66610;DHT22;53468;48.276;14.416;2023-04-03T23:32:09;3.00;99.90
66610;DHT22;53468;48.276;14.416;2023-04-03T23:37:34;2.90;99.90
66610;DHT22;53468;48.276;14.416;2023-04-03T23:42:41;2.90;99.90
66610;DHT22;53468;48.276;14.416;2023-04-03T23:47:58;3.00;99.90
66610;DHT22;53468;48.276;14.416;2023-04-03T23:53:10;3.00;99.90
66610;DHT22;53468;48.276;14.416;2023-04-03T23:58:19;2.90;99.90
